createdAt,value
2017-10-11T00:00:27.642Z,0
2017-10-11T00:01:27.667Z,0
2017-10-11T00:02:28.017Z,0
2017-10-11T00:03:27.690Z,0
2017-10-11T00:04:28.375Z,0
2017-10-11T00:05:27.719Z,0
2017-10-11T00:06:28.086Z,0
2017-10-11T00:07:28.431Z,0
2017-10-11T00:08:28.112Z,0
2017-10-11T00:09:28.135Z,0
2017-10-11T00:10:28.148Z,0
2017-10-11T00:11:28.165Z,0
2017-10-11T00:12:28.188Z,0
2017-10-11T00:13:28.197Z,0
2017-10-11T00:14:28.217Z,0
2017-10-11T00:15:28.565Z,0
2017-10-11T00:16:28.597Z,0
2017-10-11T00:17:28.272Z,0
2017-10-11T00:18:28.647Z,0
2017-10-11T00:19:28.306Z,0
2017-10-11T00:20:27.657Z,0
2017-10-11T00:21:28.008Z,0
2017-10-11T00:22:28.023Z,0
2017-10-11T00:23:28.049Z,0
2017-10-11T00:24:28.391Z,0
2017-10-11T00:25:28.413Z,0
2017-10-11T00:26:28.430Z,0
2017-10-11T00:27:28.119Z,0
2017-10-11T00:28:27.795Z,0
2017-10-11T00:29:28.481Z,0
2017-10-11T00:30:27.834Z,0
2017-10-11T00:31:28.517Z,0
2017-10-11T00:32:28.865Z,0
2017-10-11T00:33:28.894Z,0
2017-10-11T00:34:28.901Z,0
2017-10-11T00:35:28.591Z,0
2017-10-11T00:36:28.607Z,0
2017-10-11T00:37:28.288Z,0
2017-10-11T00:38:28.977Z,0
2017-10-11T00:39:29.012Z,0
2017-10-11T00:40:28.343Z,0
2017-10-11T00:41:29.039Z,0
2017-10-11T00:42:28.388Z,0
2017-10-11T00:43:28.729Z,0
2017-10-11T00:44:28.780Z,0
2017-10-11T00:45:28.770Z,0
2017-10-11T00:46:28.788Z,0
2017-10-11T00:47:28.807Z,0
2017-10-11T00:48:28.486Z,0
2017-10-11T00:49:28.845Z,0
2017-10-11T00:50:29.191Z,0
2017-10-11T00:51:28.570Z,0
2017-10-11T00:52:28.892Z,0
2017-10-11T00:53:28.578Z,0
2017-10-11T00:54:28.594Z,0
2017-10-11T00:55:28.615Z,0
2017-10-11T00:56:28.994Z,0
2017-10-11T00:57:28.979Z,0
2017-10-11T00:58:29.331Z,0
2017-10-11T00:59:29.016Z,0
2017-10-11T01:00:29.370Z,0
2017-10-11T01:01:29.056Z,0
2017-10-11T01:02:29.070Z,0
2017-10-11T01:03:29.642Z,0
2017-10-11T01:04:28.772Z,0
2017-10-11T01:05:28.456Z,0
2017-10-11T01:06:29.139Z,0
2017-10-11T01:07:29.499Z,0
2017-10-11T01:08:29.174Z,0
2017-10-11T01:09:29.198Z,0
2017-10-11T01:10:29.546Z,0
2017-10-11T01:11:29.236Z,0
2017-10-11T01:12:28.580Z,0
2017-10-11T01:13:28.599Z,0
2017-10-11T01:14:28.957Z,0
2017-10-11T01:15:28.638Z,0
2017-10-11T01:16:28.987Z,0
2017-10-11T01:17:29.667Z,0
2017-10-11T01:18:28.686Z,0
2017-10-11T01:19:29.040Z,0
2017-10-11T01:20:29.075Z,0
2017-10-11T01:21:29.414Z,0
2017-10-11T01:22:29.092Z,0
2017-10-11T01:23:29.118Z,0
2017-10-11T01:24:29.464Z,0
2017-10-11T01:25:29.475Z,0
2017-10-11T01:26:29.160Z,0
2017-10-11T01:27:29.181Z,0
2017-10-11T01:28:29.534Z,0
2017-10-11T01:29:29.554Z,0
2017-10-11T01:30:29.568Z,0
2017-10-11T01:31:29.639Z,0
2017-10-11T01:32:29.608Z,0
2017-10-11T01:33:29.622Z,0
2017-10-11T01:34:29.649Z,0
2017-10-11T01:35:29.660Z,0
2017-10-11T01:36:29.675Z,0
2017-10-11T01:37:29.699Z,0
2017-10-11T01:38:29.710Z,0
2017-10-11T01:39:29.408Z,0
2017-10-11T01:40:29.080Z,0
2017-10-11T01:41:29.767Z,0
2017-10-11T01:42:29.447Z,0
2017-10-11T01:43:29.799Z,0
2017-10-11T01:44:29.844Z,0
2017-10-11T01:45:29.508Z,0
2017-10-11T01:46:29.519Z,0
2017-10-11T01:47:29.202Z,0
2017-10-11T01:48:29.555Z,0
2017-10-11T01:49:29.945Z,0
2017-10-11T01:50:29.258Z,0
2017-10-11T01:51:29.611Z,0
2017-10-11T01:52:29.624Z,0
2017-10-11T01:53:29.643Z,0
2017-10-11T01:54:30.330Z,0
2017-10-11T01:55:29.679Z,0
2017-10-11T01:56:29.699Z,0
2017-10-11T01:57:29.718Z,0
2017-10-11T01:58:30.065Z,0
2017-10-11T01:59:29.757Z,0
2017-10-11T02:00:29.764Z,0
2017-10-11T02:01:30.121Z,0
2017-10-11T02:02:29.808Z,0
2017-10-11T02:03:29.489Z,0
2017-10-11T02:04:30.174Z,0
2017-10-11T02:05:30.189Z,0
2017-10-11T02:06:30.210Z,0
2017-10-11T02:07:30.230Z,0
2017-10-11T02:08:29.910Z,0
2017-10-11T02:09:30.269Z,0
2017-10-11T02:10:29.944Z,0
2017-10-11T02:11:29.963Z,0
2017-10-11T02:12:30.649Z,0
2017-10-11T02:13:30.334Z,0
2017-10-11T02:14:30.026Z,0
2017-10-11T02:15:29.700Z,0
2017-10-11T02:16:30.383Z,0
2017-10-11T02:17:30.067Z,0
2017-10-11T02:18:30.421Z,0
2017-10-11T02:19:30.459Z,0
2017-10-11T02:20:29.789Z,0
2017-10-11T02:21:30.472Z,0
2017-10-11T02:22:30.491Z,0
2017-10-11T02:23:29.840Z,0
2017-10-11T02:24:30.561Z,0
2017-10-11T02:25:30.546Z,0
2017-10-11T02:26:30.233Z,0
2017-10-11T02:27:30.924Z,0
2017-10-11T02:28:30.635Z,0
2017-10-11T02:29:30.284Z,0
2017-10-11T02:30:29.965Z,0
2017-10-11T02:31:30.994Z,0
2017-10-11T02:32:30.341Z,0
2017-10-11T02:33:30.696Z,0
2017-10-11T02:34:30.370Z,0
2017-10-11T02:35:30.390Z,0
2017-10-11T02:36:30.405Z,0
2017-10-11T02:37:30.768Z,0
2017-10-11T02:38:30.793Z,0
2017-10-11T02:39:30.465Z,0
2017-10-11T02:40:30.815Z,0
2017-10-11T02:41:30.840Z,0
2017-10-11T02:42:30.532Z,0
2017-10-11T02:43:30.873Z,0
2017-10-11T02:44:31.217Z,0
2017-10-11T02:45:30.581Z,0
2017-10-11T02:46:30.927Z,0
2017-10-11T02:47:30.600Z,0
2017-10-11T02:48:30.619Z,0
2017-10-11T02:49:31.313Z,0
2017-10-11T02:50:30.325Z,0
2017-10-11T02:51:30.673Z,0
2017-10-11T02:52:30.357Z,0
2017-10-11T02:53:30.712Z,0
2017-10-11T02:54:31.415Z,0
2017-10-11T02:55:30.748Z,0
2017-10-11T02:56:31.097Z,0
2017-10-11T02:57:31.121Z,0
2017-10-11T02:58:30.811Z,0
2017-10-11T02:59:30.484Z,0
2017-10-11T03:00:30.830Z,0
2017-10-11T03:01:31.186Z,0
2017-10-11T03:02:30.864Z,0
2017-10-11T03:03:31.231Z,0
2017-10-11T03:04:31.570Z,0
2017-10-11T03:05:31.254Z,0
2017-10-11T03:06:31.275Z,0
2017-10-11T03:07:31.647Z,0
2017-10-11T03:08:30.652Z,0
2017-10-11T03:09:30.995Z,0
2017-10-11T03:10:31.340Z,0
2017-10-11T03:11:31.369Z,0
2017-10-11T03:12:31.043Z,0
2017-10-11T03:13:31.068Z,0
2017-10-11T03:14:31.410Z,0
2017-10-11T03:15:31.095Z,0
2017-10-11T03:16:31.782Z,0
2017-10-11T03:17:30.805Z,0
2017-10-11T03:18:31.813Z,0
2017-10-11T03:19:31.506Z,0
2017-10-11T03:20:30.852Z,0
2017-10-11T03:21:30.875Z,0
2017-10-11T03:22:31.225Z,0
2017-10-11T03:23:31.243Z,0
2017-10-11T03:24:31.259Z,0
2017-10-11T03:25:31.275Z,0
2017-10-11T03:26:31.629Z,0
2017-10-11T03:27:31.641Z,0
2017-10-11T03:28:31.326Z,0
2017-10-11T03:29:31.361Z,0
2017-10-11T03:30:31.709Z,0
2017-10-11T03:31:31.786Z,0
2017-10-11T03:32:31.068Z,0
2017-10-11T03:33:31.770Z,0
2017-10-11T03:34:31.768Z,0
2017-10-11T03:35:31.456Z,0
2017-10-11T03:36:31.805Z,0
2017-10-11T03:37:32.169Z,0
2017-10-11T03:38:31.236Z,0
2017-10-11T03:39:31.861Z,0
2017-10-11T03:40:32.219Z,0
2017-10-11T03:41:31.567Z,0
2017-10-11T03:42:31.919Z,0
2017-10-11T03:43:31.930Z,0
2017-10-11T03:44:31.622Z,0
2017-10-11T03:45:31.964Z,0
2017-10-11T03:46:31.648Z,0
2017-10-11T03:47:32.335Z,0
2017-10-11T03:48:31.688Z,0
2017-10-11T03:49:31.702Z,0
2017-10-11T03:50:32.388Z,0
2017-10-11T03:51:31.402Z,0
2017-10-11T03:52:32.096Z,0
2017-10-11T03:53:32.106Z,0
2017-10-11T03:54:32.125Z,0
2017-10-11T03:55:31.479Z,0
2017-10-11T03:56:32.496Z,0
2017-10-11T03:57:31.854Z,0
2017-10-11T03:58:31.862Z,0
2017-10-11T03:59:32.560Z,0
2017-10-11T04:00:31.895Z,0
2017-10-11T04:01:31.916Z,0
2017-10-11T04:02:32.600Z,0
2017-10-11T04:03:32.711Z,0
2017-10-11T04:04:31.637Z,0
2017-10-11T04:05:32.322Z,0
2017-10-11T04:06:32.015Z,0
2017-10-11T04:07:32.372Z,0
2017-10-11T04:08:32.375Z,0
2017-10-11T04:09:32.390Z,0
2017-10-11T04:10:32.438Z,0
2017-10-11T04:11:32.097Z,0
2017-10-11T04:12:32.115Z,0
2017-10-11T04:13:32.160Z,0
2017-10-11T04:14:32.489Z,0
2017-10-11T04:15:32.505Z,0
2017-10-11T04:16:32.180Z,0
2017-10-11T04:17:32.539Z,0
2017-10-11T04:18:31.884Z,0
2017-10-11T04:19:32.572Z,0
2017-10-11T04:20:32.597Z,0
2017-10-11T04:21:32.940Z,0
2017-10-11T04:22:31.959Z,0
2017-10-11T04:23:32.643Z,0
2017-10-11T04:24:32.663Z,0
2017-10-11T04:25:32.345Z,0
2017-10-11T04:26:32.363Z,0
2017-10-11T04:27:32.713Z,0
2017-10-11T04:28:32.396Z,0
2017-10-11T04:29:32.418Z,0
2017-10-11T04:30:32.774Z,0
2017-10-11T04:31:32.119Z,0
2017-10-11T04:32:32.136Z,0
2017-10-11T04:33:32.498Z,0
2017-10-11T04:34:32.858Z,0
2017-10-11T04:35:32.550Z,0
2017-10-11T04:36:32.560Z,0
2017-10-11T04:37:32.893Z,0
2017-10-11T04:38:32.910Z,0
2017-10-11T04:39:32.601Z,0
2017-10-11T04:40:32.950Z,0
2017-10-11T04:41:32.967Z,0
2017-10-11T04:42:32.315Z,0
2017-10-11T04:43:32.666Z,0
2017-10-11T04:44:33.021Z,0
2017-10-11T04:45:33.042Z,0
2017-10-11T04:46:32.719Z,0
2017-10-11T04:47:33.088Z,0
2017-10-11T04:48:33.423Z,0
2017-10-11T04:49:32.782Z,0
2017-10-11T04:50:33.122Z,0
2017-10-11T04:51:32.481Z,0
2017-10-11T04:52:32.835Z,0
2017-10-11T04:53:32.844Z,0
2017-10-11T04:54:33.196Z,0
2017-10-11T04:55:32.547Z,0
2017-10-11T04:56:32.560Z,0
2017-10-11T04:57:32.580Z,0
2017-10-11T04:58:32.930Z,0
2017-10-11T04:59:32.951Z,0
2017-10-11T05:00:33.301Z,0
2017-10-11T05:01:33.337Z,0
2017-10-11T05:02:33.341Z,0
2017-10-11T05:03:33.378Z,0
2017-10-11T05:04:33.038Z,0
2017-10-11T05:05:33.390Z,0
2017-10-11T05:06:33.075Z,0
2017-10-11T05:07:33.424Z,0
2017-10-11T05:08:33.110Z,0
2017-10-11T05:09:33.465Z,0
2017-10-11T05:10:33.147Z,0
2017-10-11T05:11:33.840Z,4
2017-10-11T05:12:33.858Z,4
2017-10-11T05:13:33.868Z,4
2017-10-11T05:14:33.555Z,4
2017-10-11T05:15:33.568Z,4
2017-10-11T05:16:33.259Z,4
2017-10-11T05:17:33.274Z,8
2017-10-11T05:18:33.627Z,4
2017-10-11T05:19:33.309Z,8
2017-10-11T05:20:33.667Z,8
2017-10-11T05:21:33.347Z,12
2017-10-11T05:22:33.702Z,12
2017-10-11T05:23:33.712Z,16
2017-10-11T05:24:33.737Z,12
2017-10-11T05:25:33.755Z,16
2017-10-11T05:26:33.434Z,16
2017-10-11T05:27:33.790Z,20
2017-10-11T05:28:33.467Z,20
2017-10-11T05:29:33.152Z,20
2017-10-11T05:30:33.842Z,24
2017-10-11T05:31:33.522Z,24
2017-10-11T05:32:33.552Z,20
2017-10-11T05:33:33.559Z,20
2017-10-11T05:34:33.577Z,24
2017-10-11T05:35:33.259Z,28
2017-10-11T05:36:33.609Z,32
2017-10-11T05:37:33.969Z,32
2017-10-11T05:38:33.995Z,36
2017-10-11T05:39:34.002Z,40
2017-10-11T05:40:34.014Z,44
2017-10-11T05:41:33.366Z,48
2017-10-11T05:42:33.714Z,48
2017-10-11T05:43:33.402Z,48
2017-10-11T05:44:34.103Z,60
2017-10-11T05:45:33.774Z,64
2017-10-11T05:46:34.129Z,76
2017-10-11T05:47:34.145Z,84
2017-10-11T05:48:34.157Z,80
2017-10-11T05:49:33.840Z,84
2017-10-11T05:50:34.539Z,92
2017-10-11T05:51:34.419Z,112
2017-10-11T05:52:34.573Z,116
2017-10-11T05:53:34.257Z,104
2017-10-11T05:54:34.269Z,96
2017-10-11T05:55:33.635Z,92
2017-10-11T05:56:34.313Z,84
2017-10-11T05:57:34.329Z,84
2017-10-11T05:58:34.675Z,88
2017-10-11T05:59:34.356Z,100
2017-10-11T06:00:34.369Z,132
2017-10-11T06:01:34.774Z,136
2017-10-11T06:02:34.075Z,120
2017-10-11T06:03:34.424Z,120
2017-10-11T06:04:34.446Z,140
2017-10-11T06:05:34.132Z,160
2017-10-11T06:06:34.148Z,160
2017-10-11T06:07:33.832Z,132
2017-10-11T06:08:34.529Z,124
2017-10-11T06:09:34.889Z,160
2017-10-11T06:10:33.882Z,164
2017-10-11T06:11:34.790Z,152
2017-10-11T06:12:33.921Z,152
2017-10-11T06:13:34.612Z,180
2017-10-11T06:14:34.627Z,212
2017-10-11T06:15:34.311Z,212
2017-10-11T06:16:34.658Z,192
2017-10-11T06:17:34.343Z,184
2017-10-11T06:18:34.369Z,192
2017-10-11T06:19:34.714Z,216
2017-10-11T06:20:34.400Z,188
2017-10-11T06:21:35.084Z,148
2017-10-11T06:22:34.966Z,144
2017-10-11T06:23:34.450Z,128
2017-10-11T06:24:34.469Z,108
2017-10-11T06:25:34.819Z,112
2017-10-11T06:26:34.862Z,108
2017-10-11T06:27:35.230Z,120
2017-10-11T06:28:34.602Z,140
2017-10-11T06:29:34.896Z,116
2017-10-11T06:30:34.914Z,112
2017-10-11T06:31:34.802Z,124
2017-10-11T06:32:34.621Z,140
2017-10-11T06:33:34.969Z,136
2017-10-11T06:34:34.314Z,124
2017-10-11T06:35:34.664Z,124
2017-10-11T06:36:35.018Z,120
2017-10-11T06:37:34.586Z,112
2017-10-11T06:38:35.053Z,104
2017-10-11T06:39:35.441Z,100
2017-10-11T06:40:34.759Z,96
2017-10-11T06:41:35.105Z,96
2017-10-11T06:42:34.453Z,112
2017-10-11T06:43:35.148Z,116
2017-10-11T06:44:35.156Z,136
2017-10-11T06:45:34.843Z,172
2017-10-11T06:46:35.197Z,204
2017-10-11T06:47:35.550Z,176
2017-10-11T06:48:35.230Z,224
2017-10-11T06:49:35.246Z,244
2017-10-11T06:50:35.263Z,240
2017-10-11T06:51:34.955Z,284
2017-10-11T06:52:34.975Z,272
2017-10-11T06:53:34.984Z,236
2017-10-11T06:54:34.999Z,276
2017-10-11T06:55:35.358Z,280
2017-10-11T06:56:35.373Z,248
2017-10-11T06:57:35.063Z,392
2017-10-11T06:58:35.087Z,608
2017-10-11T06:59:35.095Z,588
2017-10-11T07:00:35.465Z,548
2017-10-11T07:01:35.129Z,560
2017-10-11T07:02:35.151Z,576
2017-10-11T07:03:34.833Z,648
2017-10-11T07:04:35.847Z,536
2017-10-11T07:05:35.871Z,368
2017-10-11T07:06:35.580Z,432
2017-10-11T07:07:35.578Z,588
2017-10-11T07:08:35.254Z,592
2017-10-11T07:09:35.276Z,548
2017-10-11T07:10:35.293Z,620
2017-10-11T07:11:35.981Z,568
2017-10-11T07:12:35.329Z,512
2017-10-11T07:13:35.678Z,304
2017-10-11T07:14:35.698Z,340
2017-10-11T07:15:35.385Z,464
2017-10-11T07:16:35.399Z,492
2017-10-11T07:17:35.765Z,560
2017-10-11T07:18:35.435Z,456
2017-10-11T07:19:35.451Z,500
2017-10-11T07:20:35.806Z,540
2017-10-11T07:21:36.167Z,532
2017-10-11T07:22:35.172Z,408
2017-10-11T07:23:36.223Z,252
2017-10-11T07:24:36.225Z,404
2017-10-11T07:25:36.102Z,700
2017-10-11T07:26:35.580Z,700
2017-10-11T07:27:35.261Z,708
2017-10-11T07:28:35.616Z,488
2017-10-11T07:29:35.639Z,456
2017-10-11T07:30:36.322Z,780
2017-10-11T07:31:36.053Z,652
2017-10-11T07:32:36.041Z,376
2017-10-11T07:33:35.375Z,356
2017-10-11T07:34:35.730Z,484
2017-10-11T07:35:35.748Z,428
2017-10-11T07:36:35.756Z,412
2017-10-11T07:37:35.794Z,392
2017-10-11T07:38:36.474Z,408
2017-10-11T07:39:36.160Z,368
2017-10-11T07:40:36.500Z,460
2017-10-11T07:41:35.849Z,468
2017-10-11T07:42:36.225Z,504
2017-10-11T07:43:36.224Z,600
2017-10-11T07:44:36.565Z,448
2017-10-11T07:45:35.590Z,440
2017-10-11T07:46:36.273Z,372
2017-10-11T07:47:36.305Z,372
2017-10-11T07:48:36.310Z,388
2017-10-11T07:49:35.997Z,412
2017-10-11T07:50:36.014Z,420
2017-10-11T07:51:36.036Z,424
2017-10-11T07:52:36.406Z,436
2017-10-11T07:53:36.409Z,440
2017-10-11T07:54:36.423Z,444
2017-10-11T07:55:36.774Z,448
2017-10-11T07:56:36.795Z,448
2017-10-11T07:57:35.818Z,448
2017-10-11T07:58:36.159Z,444
2017-10-11T07:59:36.511Z,436
2017-10-11T08:00:35.862Z,432
2017-10-11T08:01:35.913Z,428
2017-10-11T08:02:36.566Z,424
2017-10-11T08:03:36.602Z,416
2017-10-11T08:04:36.961Z,416
2017-10-11T08:05:36.954Z,416
2017-10-11T08:06:36.307Z,412
2017-10-11T08:07:36.655Z,416
2017-10-11T08:08:36.678Z,428
2017-10-11T08:09:37.023Z,432
2017-10-11T08:10:36.716Z,412
2017-10-11T08:11:36.401Z,376
2017-10-11T08:12:36.081Z,360
2017-10-11T08:13:37.129Z,344
2017-10-11T08:14:37.116Z,348
2017-10-11T08:15:36.818Z,352
2017-10-11T08:16:37.174Z,360
2017-10-11T08:17:37.027Z,404
2017-10-11T08:18:36.553Z,500
2017-10-11T08:19:36.881Z,540
2017-10-11T08:20:36.915Z,548
2017-10-11T08:21:36.913Z,616
2017-10-11T08:22:36.594Z,704
2017-10-11T08:23:36.950Z,852
2017-10-11T08:24:36.631Z,1004
2017-10-11T08:25:36.654Z,1060
2017-10-11T08:26:36.670Z,1012
2017-10-11T08:27:37.024Z,1048
2017-10-11T08:28:37.267Z,1004
2017-10-11T08:29:36.726Z,1012
2017-10-11T08:30:37.125Z,996
2017-10-11T08:31:37.118Z,1000
2017-10-11T08:32:37.119Z,1008
2017-10-11T08:33:37.476Z,964
2017-10-11T08:34:36.818Z,956
2017-10-11T08:35:37.181Z,1060
2017-10-11T08:36:36.853Z,1180
2017-10-11T08:37:36.875Z,1224
2017-10-11T08:38:37.561Z,1296
2017-10-11T08:39:37.589Z,1384
2017-10-11T08:40:37.268Z,1424
2017-10-11T08:41:36.948Z,1512
2017-10-11T08:42:37.308Z,1512
2017-10-11T08:43:36.986Z,1492
2017-10-11T08:44:37.339Z,1384
2017-10-11T08:45:37.688Z,1288
2017-10-11T08:46:37.373Z,1232
2017-10-11T08:47:37.399Z,1156
2017-10-11T08:48:37.748Z,1092
2017-10-11T08:49:37.097Z,1084
2017-10-11T08:50:37.116Z,1216
2017-10-11T08:51:37.134Z,1448
2017-10-11T08:52:37.152Z,1524
2017-10-11T08:53:37.511Z,1452
2017-10-11T08:54:37.199Z,1460
2017-10-11T08:55:37.577Z,1452
2017-10-11T08:56:37.563Z,1464
2017-10-11T08:57:37.580Z,1404
2017-10-11T08:58:37.262Z,1360
2017-10-11T08:59:36.949Z,1392
2017-10-11T09:00:37.639Z,1392
2017-10-11T09:01:37.320Z,1352
2017-10-11T09:02:37.004Z,1328
2017-10-11T09:03:38.030Z,1472
2017-10-11T09:04:38.050Z,1292
2017-10-11T09:05:37.065Z,1192
2017-10-11T09:06:38.092Z,1048
2017-10-11T09:07:37.435Z,1000
2017-10-11T09:08:37.789Z,1028
2017-10-11T09:09:37.806Z,1392
2017-10-11T09:10:37.831Z,1668
2017-10-11T09:11:37.510Z,1556
2017-10-11T09:12:37.870Z,1660
2017-10-11T09:13:37.549Z,1628
2017-10-11T09:14:37.579Z,1740
2017-10-11T09:15:37.920Z,1748
2017-10-11T09:16:37.605Z,1880
2017-10-11T09:17:38.294Z,1520
2017-10-11T09:18:37.977Z,1504
2017-10-11T09:19:37.666Z,1504
2017-10-11T09:20:37.680Z,1512
2017-10-11T09:21:38.037Z,1508
2017-10-11T09:22:37.718Z,1464
2017-10-11T09:23:37.405Z,1560
2017-10-11T09:24:38.108Z,1592
2017-10-11T09:25:38.113Z,1672
2017-10-11T09:26:38.137Z,1848
2017-10-11T09:27:38.150Z,1380
2017-10-11T09:28:37.502Z,1048
2017-10-11T09:29:38.531Z,880
2017-10-11T09:30:37.874Z,1036
2017-10-11T09:31:38.233Z,712
2017-10-11T09:32:37.913Z,976
2017-10-11T09:33:38.271Z,1148
2017-10-11T09:34:37.958Z,1064
2017-10-11T09:35:38.309Z,1080
2017-10-11T09:36:37.991Z,1528
2017-10-11T09:37:38.352Z,1592
2017-10-11T09:38:37.699Z,1660
2017-10-11T09:39:37.715Z,1720
2017-10-11T09:40:38.071Z,1568
2017-10-11T09:41:38.432Z,1676
2017-10-11T09:42:38.106Z,1700
2017-10-11T09:43:38.462Z,1716
2017-10-11T09:44:38.816Z,1560
2017-10-11T09:45:38.164Z,1308
2017-10-11T09:46:38.824Z,956
2017-10-11T09:47:38.881Z,824
2017-10-11T09:48:38.225Z,808
2017-10-11T09:49:38.922Z,732
2017-10-11T09:50:37.926Z,720
2017-10-11T09:51:38.297Z,704
2017-10-11T09:52:38.649Z,808
2017-10-11T09:53:38.657Z,1408
2017-10-11T09:54:38.345Z,1372
2017-10-11T09:55:39.038Z,1528
2017-10-11T09:56:38.046Z,1872
2017-10-11T09:57:38.736Z,1804
2017-10-11T09:58:38.420Z,2420
2017-10-11T09:59:38.438Z,2128
2017-10-11T10:00:38.792Z,1292
2017-10-11T10:01:39.151Z,1072
2017-10-11T10:02:38.836Z,1072
2017-10-11T10:03:38.859Z,1120
2017-10-11T10:04:38.538Z,1228
2017-10-11T10:05:39.226Z,1316
2017-10-11T10:06:38.579Z,1468
2017-10-11T10:07:38.596Z,1304
2017-10-11T10:08:38.615Z,1480
2017-10-11T10:09:38.977Z,1616
2017-10-11T10:10:38.657Z,1780
2017-10-11T10:11:38.677Z,1948
2017-10-11T10:12:38.697Z,1648
2017-10-11T10:13:39.048Z,1476
2017-10-11T10:14:39.071Z,1680
2017-10-11T10:15:39.305Z,1940
2017-10-11T10:16:38.447Z,1816
2017-10-11T10:17:39.484Z,1652
2017-10-11T10:18:38.482Z,1460
2017-10-11T10:19:39.510Z,1496
2017-10-11T10:20:39.526Z,1472
2017-10-11T10:21:38.874Z,1532
2017-10-11T10:22:38.901Z,1520
2017-10-11T10:23:39.259Z,1980
2017-10-11T10:24:39.614Z,2104
2017-10-11T10:25:39.631Z,2000
2017-10-11T10:26:39.318Z,1504
2017-10-11T10:27:39.349Z,1396
2017-10-11T10:28:38.684Z,1316
2017-10-11T10:29:39.799Z,1800
2017-10-11T10:30:39.108Z,1832
2017-10-11T10:31:39.415Z,1924
2017-10-11T10:32:39.098Z,1928
2017-10-11T10:33:39.449Z,1852
2017-10-11T10:34:39.137Z,1944
2017-10-11T10:35:39.157Z,2192
2017-10-11T10:36:39.617Z,2188
2017-10-11T10:37:39.198Z,2036
2017-10-11T10:38:39.607Z,1976
2017-10-11T10:39:39.237Z,2024
2017-10-11T10:40:39.797Z,1948
2017-10-11T10:41:39.625Z,1936
2017-10-11T10:42:39.644Z,1608
2017-10-11T10:43:40.642Z,1248
2017-10-11T10:44:39.673Z,1048
2017-10-11T10:45:39.702Z,892
2017-10-11T10:46:39.772Z,868
2017-10-11T10:47:39.452Z,824
2017-10-11T10:48:39.423Z,804
2017-10-11T10:49:39.445Z,828
2017-10-11T10:50:39.818Z,764
2017-10-11T10:51:39.493Z,764
2017-10-11T10:52:39.502Z,720
2017-10-11T10:53:39.520Z,848
2017-10-11T10:54:39.877Z,912
2017-10-11T10:55:39.897Z,860
2017-10-11T10:56:39.252Z,888
2017-10-11T10:57:39.614Z,856
2017-10-11T10:58:39.622Z,1000
2017-10-11T10:59:40.322Z,1196
2017-10-11T11:00:39.338Z,1196
2017-10-11T11:01:40.379Z,1072
2017-10-11T11:02:40.373Z,1136
2017-10-11T11:03:40.062Z,1464
2017-10-11T11:04:40.089Z,1912
2017-10-11T11:05:39.846Z,2064
2017-10-11T11:06:39.850Z,1960
2017-10-11T11:07:39.826Z,1652
2017-10-11T11:08:40.033Z,1204
2017-10-11T11:09:39.513Z,904
2017-10-11T11:10:40.211Z,892
2017-10-11T11:11:40.221Z,988
2017-10-11T11:12:39.920Z,784
2017-10-11T11:13:39.929Z,928
2017-10-11T11:14:39.953Z,1052
2017-10-11T11:15:40.308Z,1316
2017-10-11T11:16:39.659Z,1336
2017-10-11T11:17:40.016Z,1528
2017-10-11T11:18:40.370Z,1708
2017-10-11T11:19:40.404Z,2168
2017-10-11T11:20:39.739Z,2336
2017-10-11T11:21:40.429Z,2136
2017-10-11T11:22:40.117Z,2028
2017-10-11T11:23:40.491Z,1856
2017-10-11T11:24:40.499Z,1672
2017-10-11T11:25:40.518Z,1692
2017-10-11T11:26:40.201Z,1740
2017-10-11T11:27:40.222Z,1756
2017-10-11T11:28:40.915Z,1540
2017-10-11T11:29:40.260Z,1300
2017-10-11T11:30:40.949Z,1388
2017-10-11T11:31:40.637Z,1228
2017-10-11T11:32:40.656Z,1252
2017-10-11T11:33:40.673Z,1208
2017-10-11T11:34:40.364Z,1180
2017-10-11T11:35:41.047Z,1180
2017-10-11T11:36:40.404Z,1204
2017-10-11T11:37:40.765Z,1100
2017-10-11T11:38:40.778Z,1072
2017-10-11T11:39:41.135Z,1040
2017-10-11T11:40:40.826Z,1048
2017-10-11T11:41:40.843Z,1120
2017-10-11T11:42:40.863Z,1232
2017-10-11T11:43:41.230Z,1332
2017-10-11T11:44:41.241Z,1408
2017-10-11T11:45:41.299Z,1344
2017-10-11T11:46:40.963Z,1496
2017-10-11T11:47:41.304Z,1476
2017-10-11T11:48:40.661Z,1304
2017-10-11T11:49:41.027Z,1508
2017-10-11T11:50:41.026Z,1964
2017-10-11T11:51:40.714Z,2224
2017-10-11T11:52:40.736Z,1912
2017-10-11T11:53:40.958Z,1804
2017-10-11T11:54:41.462Z,1592
2017-10-11T11:55:41.140Z,1340
2017-10-11T11:56:41.152Z,1148
2017-10-11T11:57:41.510Z,1076
2017-10-11T11:58:40.860Z,1056
2017-10-11T11:59:41.218Z,1024
2017-10-11T12:00:41.575Z,1004
2017-10-11T12:01:41.595Z,1132
2017-10-11T12:02:41.336Z,1276
2017-10-11T12:03:40.968Z,1280
2017-10-11T12:04:41.326Z,1472
2017-10-11T12:05:41.005Z,1676
2017-10-11T12:06:40.694Z,1664
2017-10-11T12:07:41.046Z,1568
2017-10-11T12:08:41.401Z,1564
2017-10-11T12:09:41.428Z,1684
2017-10-11T12:10:41.122Z,1764
2017-10-11T12:11:41.474Z,1784
2017-10-11T12:12:41.488Z,1820
2017-10-11T12:13:41.848Z,1676
2017-10-11T12:14:41.212Z,1548
2017-10-11T12:15:41.227Z,1484
2017-10-11T12:16:41.573Z,1512
2017-10-11T12:17:40.923Z,1468
2017-10-11T12:18:41.633Z,1496
2017-10-11T12:19:41.299Z,1816
2017-10-11T12:20:41.322Z,1824
2017-10-11T12:21:42.009Z,1804
2017-10-11T12:22:41.700Z,1644
2017-10-11T12:23:42.058Z,1308
2017-10-11T12:24:42.077Z,1500
2017-10-11T12:25:42.106Z,1768
2017-10-11T12:26:41.449Z,1916
2017-10-11T12:27:41.469Z,2044
2017-10-11T12:28:41.495Z,1772
2017-10-11T12:29:41.840Z,1348
2017-10-11T12:30:41.864Z,1084
2017-10-11T12:31:41.219Z,1136
2017-10-11T12:32:41.242Z,1272
2017-10-11T12:33:41.930Z,1488
2017-10-11T12:34:42.199Z,1252
2017-10-11T12:35:42.560Z,904
2017-10-11T12:36:41.658Z,836
2017-10-11T12:37:41.682Z,816
2017-10-11T12:38:42.034Z,780
2017-10-11T12:39:42.400Z,692
2017-10-11T12:40:41.409Z,700
2017-10-11T12:41:41.767Z,680
2017-10-11T12:42:42.127Z,796
2017-10-11T12:43:41.808Z,1096
2017-10-11T12:44:42.163Z,1560
2017-10-11T12:45:42.401Z,1364
2017-10-11T12:46:42.138Z,892
2017-10-11T12:47:42.568Z,1092
2017-10-11T12:48:41.914Z,1448
2017-10-11T12:49:41.936Z,1292
2017-10-11T12:50:41.954Z,1532
2017-10-11T12:51:42.860Z,1760
2017-10-11T12:52:42.678Z,2528
2017-10-11T12:53:42.360Z,2624
2017-10-11T12:54:42.555Z,2192
